sensor_id;sensor_type;location;lat;lon;timestamp;P1;durP1;ratioP1;P2;durP2;ratioP2
57697;SDS011;43531;52.152;6.366;2023-07-29T00:00:18;5.82;;;5.28;;
57697;SDS011;43531;52.152;6.366;2023-07-29T00:00:51;6.15;;;5.18;;
57697;SDS011;43531;52.152;6.366;2023-07-29T00:01:22;7.28;;;5.60;;
57697;SDS011;43531;52.152;6.366;2023-07-29T00:01:54;9.38;;;5.88;;
57697;SDS011;43531;52.152;6.366;2023-07-29T00:02:26;6.93;;;5.72;;
57697;SDS011;43531;52.152;6.366;2023-07-29T00:03:01;6.32;;;5.50;;
57697;SDS011;43531;52.152;6.366;2023-07-29T00:03:33;7.38;;;5.80;;
57697;SDS011;43531;52.152;6.366;2023-07-29T00:04:04;5.45;;;4.95;;
57697;SDS011;43531;52.152;6.366;2023-07-29T00:04:36;6.95;;;6.13;;
57697;SDS011;43531;52.152;6.366;2023-07-29T00:05:08;9.05;;;7.50;;
57697;SDS011;43531;52.152;6.366;2023-07-29T00:05:40;7.07;;;6.38;;
57697;SDS011;43531;52.152;6.366;2023-07-29T00:06:12;7.03;;;6.32;;
57697;SDS011;43531;52.152;6.366;2023-07-29T00:06:43;7.22;;;6.30;;
57697;SDS011;43531;52.152;6.366;2023-07-29T00:07:15;6.47;;;5.80;;
57697;SDS011;43531;52.152;6.366;2023-07-29T00:07:47;6.40;;;5.75;;
57697;SDS011;43531;52.152;6.366;2023-07-29T00:08:18;7.28;;;5.65;;
57697;SDS011;43531;52.152;6.366;2023-07-29T00:08:50;10.60;;;6.45;;
57697;SDS011;43531;52.152;6.366;2023-07-29T00:09:21;6.65;;;5.50;;
57697;SDS011;43531;52.152;6.366;2023-07-29T00:09:53;6.03;;;5.45;;
57697;SDS011;43531;52.152;6.366;2023-07-29T00:10:25;7.65;;;5.80;;
57697;SDS011;43531;52.152;6.366;2023-07-29T00:10:57;11.70;;;6.05;;
57697;SDS011;43531;52.152;6.366;2023-07-29T00:11:28;6.82;;;6.20;;
57697;SDS011;43531;52.152;6.366;2023-07-29T00:12:00;8.10;;;6.43;;
57697;SDS011;43531;52.152;6.366;2023-07-29T00:12:32;7.18;;;6.47;;
57697;SDS011;43531;52.152;6.366;2023-07-29T00:13:04;9.50;;;5.55;;
57697;SDS011;43531;52.152;6.366;2023-07-29T00:13:36;7.85;;;6.45;;
57697;SDS011;43531;52.152;6.366;2023-07-29T00:14:07;9.45;;;6.68;;
57697;SDS011;43531;52.152;6.366;2023-07-29T00:14:39;7.35;;;6.63;;
57697;SDS011;43531;52.152;6.366;2023-07-29T00:15:11;6.53;;;5.85;;
57697;SDS011;43531;52.152;6.366;2023-07-29T00:15:42;7.03;;;6.32;;
57697;SDS011;43531;52.152;6.366;2023-07-29T00:16:14;10.77;;;5.90;;
57697;SDS011;43531;52.152;6.366;2023-07-29T00:16:48;7.40;;;6.07;;
57697;SDS011;43531;52.152;6.366;2023-07-29T00:17:20;7.65;;;6.22;;
57697;SDS011;43531;52.152;6.366;2023-07-29T00:17:53;10.18;;;5.25;;
57697;SDS011;43531;52.152;6.366;2023-07-29T00:18:24;10.73;;;5.97;;
57697;SDS011;43531;52.152;6.366;2023-07-29T00:18:56;7.25;;;5.95;;
57697;SDS011;43531;52.152;6.366;2023-07-29T00:19:28;7.20;;;6.40;;
57697;SDS011;43531;52.152;6.366;2023-07-29T00:20:00;6.55;;;5.85;;
57697;SDS011;43531;52.152;6.366;2023-07-29T00:20:31;7.97;;;6.85;;
57697;SDS011;43531;52.152;6.366;2023-07-29T00:21:04;6.32;;;5.72;;
57697;SDS011;43531;52.152;6.366;2023-07-29T00:21:35;5.88;;;5.38;;
57697;SDS011;43531;52.152;6.366;2023-07-29T00:22:07;6.20;;;5.45;;
57697;SDS011;43531;52.152;6.366;2023-07-29T00:22:40;6.30;;;5.30;;
57697;SDS011;43531;52.152;6.366;2023-07-29T00:23:11;7.70;;;5.18;;
57697;SDS011;43531;52.152;6.366;2023-07-29T00:23:43;5.25;;;4.75;;
57697;SDS011;43531;52.152;6.366;2023-07-29T00:24:14;10.27;;;5.40;;
57697;SDS011;43531;52.152;6.366;2023-07-29T00:24:50;6.50;;;5.90;;
57697;SDS011;43531;52.152;6.366;2023-07-29T00:25:24;5.90;;;5.05;;
57697;SDS011;43531;52.152;6.366;2023-07-29T00:25:56;7.20;;;5.43;;
57697;SDS011;43531;52.152;6.366;2023-07-29T00:26:28;9.77;;;5.25;;
57697;SDS011;43531;52.152;6.366;2023-07-29T00:27:02;6.30;;;5.70;;
57697;SDS011;43531;52.152;6.366;2023-07-29T00:27:34;9.90;;;6.00;;
57697;SDS011;43531;52.152;6.366;2023-07-29T00:28:05;7.00;;;6.00;;
57697;SDS011;43531;52.152;6.366;2023-07-29T00:28:37;9.02;;;6.00;;
57697;SDS011;43531;52.152;6.366;2023-07-29T00:29:09;6.30;;;5.38;;
57697;SDS011;43531;52.152;6.366;2023-07-29T00:29:40;6.82;;;6.13;;
57697;SDS011;43531;52.152;6.366;2023-07-29T00:30:12;7.03;;;6.32;;
57697;SDS011;43531;52.152;6.366;2023-07-29T00:30:44;6.43;;;5.82;;
57697;SDS011;43531;52.152;6.366;2023-07-29T00:31:15;6.40;;;5.78;;
57697;SDS011;43531;52.152;6.366;2023-07-29T00:31:47;6.60;;;6.00;;
57697;SDS011;43531;52.152;6.366;2023-07-29T00:32:19;5.97;;;5.38;;
57697;SDS011;43531;52.152;6.366;2023-07-29T00:32:51;5.70;;;5.05;;
57697;SDS011;43531;52.152;6.366;2023-07-29T00:33:22;10.23;;;6.22;;
57697;SDS011;43531;52.152;6.366;2023-07-29T00:33:57;6.35;;;5.68;;
57697;SDS011;43531;52.152;6.366;2023-07-29T00:34:29;6.32;;;5.72;;
57697;SDS011;43531;52.152;6.366;2023-07-29T00:35:02;8.85;;;5.55;;
57697;SDS011;43531;52.152;6.366;2023-07-29T00:35:34;7.80;;;5.43;;
57697;SDS011;43531;52.152;6.366;2023-07-29T00:36:06;6.00;;;5.40;;
57697;SDS011;43531;52.152;6.366;2023-07-29T00:36:38;7.22;;;6.20;;
57697;SDS011;43531;52.152;6.366;2023-07-29T00:37:10;6.10;;;5.43;;
57697;SDS011;43531;52.152;6.366;2023-07-29T00:37:42;6.55;;;5.22;;
57697;SDS011;43531;52.152;6.366;2023-07-29T00:38:15;6.07;;;4.60;;
57697;SDS011;43531;52.152;6.366;2023-07-29T00:38:46;6.97;;;5.38;;
57697;SDS011;43531;52.152;6.366;2023-07-29T00:39:19;6.25;;;5.38;;
57697;SDS011;43531;52.152;6.366;2023-07-29T00:39:50;6.88;;;5.18;;
57697;SDS011;43531;52.152;6.366;2023-07-29T00:40:22;5.82;;;4.88;;
57697;SDS011;43531;52.152;6.366;2023-07-29T00:40:56;5.88;;;5.03;;
57697;SDS011;43531;52.152;6.366;2023-07-29T00:41:28;10.68;;;6.60;;
57697;SDS011;43531;52.152;6.366;2023-07-29T00:42:00;6.40;;;5.60;;
57697;SDS011;43531;52.152;6.366;2023-07-29T00:42:31;6.28;;;5.68;;
57697;SDS011;43531;52.152;6.366;2023-07-29T00:43:03;6.93;;;5.22;;
57697;SDS011;43531;52.152;6.366;2023-07-29T00:43:35;6.47;;;5.88;;
57697;SDS011;43531;52.152;6.366;2023-07-29T00:44:06;5.68;;;5.10;;
57697;SDS011;43531;52.152;6.366;2023-07-29T00:44:56;5.80;;;5.20;;
57697;SDS011;43531;52.152;6.366;2023-07-29T00:45:30;9.68;;;5.45;;
57697;SDS011;43531;52.152;6.366;2023-07-29T00:46:03;7.75;;;6.30;;
57697;SDS011;43531;52.152;6.366;2023-07-29T00:46:34;7.10;;;6.40;;
57697;SDS011;43531;52.152;6.366;2023-07-29T00:47:09;7.65;;;5.78;;
57697;SDS011;43531;52.152;6.366;2023-07-29T00:47:42;13.18;;;5.53;;
57697;SDS011;43531;52.152;6.366;2023-07-29T00:48:14;8.65;;;5.88;;
57697;SDS011;43531;52.152;6.366;2023-07-29T00:48:46;7.00;;;5.28;;
57697;SDS011;43531;52.152;6.366;2023-07-29T00:49:19;8.88;;;4.70;;
57697;SDS011;43531;52.152;6.366;2023-07-29T00:49:52;5.78;;;5.03;;
57697;SDS011;43531;52.152;6.366;2023-07-29T00:50:23;6.75;;;5.45;;
57697;SDS011;43531;52.152;6.366;2023-07-29T00:50:55;5.72;;;5.00;;
57697;SDS011;43531;52.152;6.366;2023-07-29T00:51:27;5.63;;;5.13;;
57697;SDS011;43531;52.152;6.366;2023-07-29T00:52:00;7.53;;;5.30;;
57697;SDS011;43531;52.152;6.366;2023-07-29T00:52:32;6.53;;;5.13;;
57697;SDS011;43531;52.152;6.366;2023-07-29T00:53:04;7.15;;;4.88;;
57697;SDS011;43531;52.152;6.366;2023-07-29T00:53:35;5.70;;;4.63;;
57697;SDS011;43531;52.152;6.366;2023-07-29T00:54:07;5.88;;;5.18;;
57697;SDS011;43531;52.152;6.366;2023-07-29T00:54:39;7.30;;;5.22;;
57697;SDS011;43531;52.152;6.366;2023-07-29T00:55:11;8.55;;;5.72;;
57697;SDS011;43531;52.152;6.366;2023-07-29T00:55:43;5.10;;;4.60;;
57697;SDS011;43531;52.152;6.366;2023-07-29T00:56:15;5.88;;;5.05;;
57697;SDS011;43531;52.152;6.366;2023-07-29T00:56:47;10.88;;;5.20;;
57697;SDS011;43531;52.152;6.366;2023-07-29T00:57:19;6.53;;;5.45;;
57697;SDS011;43531;52.152;6.366;2023-07-29T00:57:51;6.05;;;5.20;;
57697;SDS011;43531;52.152;6.366;2023-07-29T00:58:25;6.05;;;5.30;;
57697;SDS011;43531;52.152;6.366;2023-07-29T00:58:57;7.45;;;5.75;;
57697;SDS011;43531;52.152;6.366;2023-07-29T00:59:32;6.68;;;4.93;;
57697;SDS011;43531;52.152;6.366;2023-07-29T01:00:06;6.20;;;5.60;;
57697;SDS011;43531;52.152;6.366;2023-07-29T01:00:39;6.50;;;5.63;;
57697;SDS011;43531;52.152;6.366;2023-07-29T01:01:11;7.80;;;5.82;;
57697;SDS011;43531;52.152;6.366;2023-07-29T01:01:43;5.45;;;4.95;;
57697;SDS011;43531;52.152;6.366;2023-07-29T01:02:15;6.70;;;5.72;;
57697;SDS011;43531;52.152;6.366;2023-07-29T01:02:47;7.95;;;5.68;;
57697;SDS011;43531;52.152;6.366;2023-07-29T01:03:19;8.30;;;5.97;;
57697;SDS011;43531;52.152;6.366;2023-07-29T01:03:52;6.95;;;6.10;;
57697;SDS011;43531;52.152;6.366;2023-07-29T01:04:24;9.80;;;6.43;;
57697;SDS011;43531;52.152;6.366;2023-07-29T01:04:56;6.07;;;5.47;;
57697;SDS011;43531;52.152;6.366;2023-07-29T01:05:30;8.15;;;5.57;;
57697;SDS011;43531;52.152;6.366;2023-07-29T01:06:15;17.92;;;7.18;;
57697;SDS011;43531;52.152;6.366;2023-07-29T01:07:00;7.70;;;6.90;;
57697;SDS011;43531;52.152;6.366;2023-07-29T01:08:25;6.13;;;5.63;;
57697;SDS011;43531;52.152;6.366;2023-07-29T01:09:04;6.20;;;5.60;;
57697;SDS011;43531;52.152;6.366;2023-07-29T01:10:07;6.28;;;5.30;;
57697;SDS011;43531;52.152;6.366;2023-07-29T01:11:05;6.65;;;5.28;;
57697;SDS011;43531;52.152;6.366;2023-07-29T01:11:58;5.57;;;5.03;;
57697;SDS011;43531;52.152;6.366;2023-07-29T01:12:37;9.10;;;5.43;;
57697;SDS011;43531;52.152;6.366;2023-07-29T01:13:18;6.75;;;6.03;;
57697;SDS011;43531;52.152;6.366;2023-07-29T01:13:53;6.38;;;5.47;;
57697;SDS011;43531;52.152;6.366;2023-07-29T01:14:34;6.88;;;6.18;;
57697;SDS011;43531;52.152;6.366;2023-07-29T01:15:16;8.40;;;6.82;;
57697;SDS011;43531;52.152;6.366;2023-07-29T01:15:58;6.30;;;5.57;;
57697;SDS011;43531;52.152;6.366;2023-07-29T01:16:39;6.75;;;5.65;;
57697;SDS011;43531;52.152;6.366;2023-07-29T01:17:15;6.47;;;5.88;;
57697;SDS011;43531;52.152;6.366;2023-07-29T01:17:59;11.85;;;6.95;;
57697;SDS011;43531;52.152;6.366;2023-07-29T01:18:35;12.63;;;5.90;;
57697;SDS011;43531;52.152;6.366;2023-07-29T01:19:07;9.52;;;5.63;;
57697;SDS011;43531;52.152;6.366;2023-07-29T01:20:32;6.90;;;5.85;;
57697;SDS011;43531;52.152;6.366;2023-07-29T01:21:07;8.65;;;6.15;;
57697;SDS011;43531;52.152;6.366;2023-07-29T01:21:39;10.20;;;6.70;;
57697;SDS011;43531;52.152;6.366;2023-07-29T01:22:12;6.68;;;5.97;;
57697;SDS011;43531;52.152;6.366;2023-07-29T01:22:44;6.72;;;6.03;;
57697;SDS011;43531;52.152;6.366;2023-07-29T01:23:22;10.30;;;6.35;;
57697;SDS011;43531;52.152;6.366;2023-07-29T01:24:03;6.13;;;5.53;;
57697;SDS011;43531;52.152;6.366;2023-07-29T01:24:35;6.47;;;5.85;;
57697;SDS011;43531;52.152;6.366;2023-07-29T01:25:06;13.55;;;6.15;;
57697;SDS011;43531;52.152;6.366;2023-07-29T01:25:39;6.50;;;5.82;;
57697;SDS011;43531;52.152;6.366;2023-07-29T01:26:10;9.48;;;5.90;;
57697;SDS011;43531;52.152;6.366;2023-07-29T01:26:44;6.15;;;5.55;;
57697;SDS011;43531;52.152;6.366;2023-07-29T01:27:16;11.07;;;6.30;;
57697;SDS011;43531;52.152;6.366;2023-07-29T01:27:48;9.77;;;5.22;;
57697;SDS011;43531;52.152;6.366;2023-07-29T01:28:23;10.23;;;5.78;;
57697;SDS011;43531;52.152;6.366;2023-07-29T01:28:56;8.80;;;6.22;;
57697;SDS011;43531;52.152;6.366;2023-07-29T01:29:28;6.63;;;5.55;;
57697;SDS011;43531;52.152;6.366;2023-07-29T01:30:00;8.95;;;6.88;;
57697;SDS011;43531;52.152;6.366;2023-07-29T01:30:37;5.63;;;5.13;;
57697;SDS011;43531;52.152;6.366;2023-07-29T01:31:20;8.05;;;5.03;;
57697;SDS011;43531;52.152;6.366;2023-07-29T01:31:57;8.45;;;5.20;;
57697;SDS011;43531;52.152;6.366;2023-07-29T01:32:43;7.75;;;5.90;;
57697;SDS011;43531;52.152;6.366;2023-07-29T01:33:26;16.00;;;5.38;;
57697;SDS011;43531;52.152;6.366;2023-07-29T01:33:59;8.27;;;5.47;;
57697;SDS011;43531;52.152;6.366;2023-07-29T01:34:48;18.23;;;5.70;;
57697;SDS011;43531;52.152;6.366;2023-07-29T01:35:28;7.60;;;5.40;;
57697;SDS011;43531;52.152;6.366;2023-07-29T01:36:07;7.07;;;6.40;;
57697;SDS011;43531;52.152;6.366;2023-07-29T01:36:45;10.10;;;6.82;;
57697;SDS011;43531;52.152;6.366;2023-07-29T01:37:19;6.90;;;6.18;;
57697;SDS011;43531;52.152;6.366;2023-07-29T01:37:54;6.28;;;5.68;;
57697;SDS011;43531;52.152;6.366;2023-07-29T01:38:28;11.15;;;6.05;;
57697;SDS011;43531;52.152;6.366;2023-07-29T01:39:03;7.15;;;5.93;;
57697;SDS011;43531;52.152;6.366;2023-07-29T01:39:34;8.25;;;5.82;;
57697;SDS011;43531;52.152;6.366;2023-07-29T01:40:08;6.57;;;5.93;;
57697;SDS011;43531;52.152;6.366;2023-07-29T01:40:40;8.05;;;6.30;;
57697;SDS011;43531;52.152;6.366;2023-07-29T01:41:13;7.00;;;6.30;;
57697;SDS011;43531;52.152;6.366;2023-07-29T01:41:45;8.20;;;6.30;;
57697;SDS011;43531;52.152;6.366;2023-07-29T01:42:16;7.43;;;5.65;;
57697;SDS011;43531;52.152;6.366;2023-07-29T01:42:48;6.95;;;6.25;;
57697;SDS011;43531;52.152;6.366;2023-07-29T01:43:20;6.57;;;5.95;;
57697;SDS011;43531;52.152;6.366;2023-07-29T01:43:57;7.18;;;6.47;;
57697;SDS011;43531;52.152;6.366;2023-07-29T01:44:29;7.20;;;5.43;;
57697;SDS011;43531;52.152;6.366;2023-07-29T01:45:00;8.05;;;5.28;;
57697;SDS011;43531;52.152;6.366;2023-07-29T01:45:32;9.98;;;6.00;;
57697;SDS011;43531;52.152;6.366;2023-07-29T01:46:07;7.05;;;6.35;;
57697;SDS011;43531;52.152;6.366;2023-07-29T01:46:39;8.85;;;6.68;;
57697;SDS011;43531;52.152;6.366;2023-07-29T01:47:11;6.55;;;5.95;;
57697;SDS011;43531;52.152;6.366;2023-07-29T01:47:42;6.97;;;6.25;;
57697;SDS011;43531;52.152;6.366;2023-07-29T01:48:14;9.68;;;6.88;;
57697;SDS011;43531;52.152;6.366;2023-07-29T01:48:46;8.95;;;6.43;;
57697;SDS011;43531;52.152;6.366;2023-07-29T01:49:18;9.75;;;6.18;;
57697;SDS011;43531;52.152;6.366;2023-07-29T01:49:49;8.55;;;6.82;;
57697;SDS011;43531;52.152;6.366;2023-07-29T01:50:21;7.35;;;5.88;;
57697;SDS011;43531;52.152;6.366;2023-07-29T01:50:52;8.45;;;7.03;;
57697;SDS011;43531;52.152;6.366;2023-07-29T01:51:24;10.07;;;7.70;;
57697;SDS011;43531;52.152;6.366;2023-07-29T01:51:56;8.20;;;6.95;;
57697;SDS011;43531;52.152;6.366;2023-07-29T01:52:27;6.97;;;6.28;;
57697;SDS011;43531;52.152;6.366;2023-07-29T01:52:59;7.72;;;6.28;;
57697;SDS011;43531;52.152;6.366;2023-07-29T01:53:31;8.15;;;6.40;;
57697;SDS011;43531;52.152;6.366;2023-07-29T01:54:03;7.10;;;6.20;;
57697;SDS011;43531;52.152;6.366;2023-07-29T01:54:34;12.57;;;6.97;;
57697;SDS011;43531;52.152;6.366;2023-07-29T01:55:06;7.40;;;6.65;;
57697;SDS011;43531;52.152;6.366;2023-07-29T01:55:38;8.52;;;6.85;;
57697;SDS011;43531;52.152;6.366;2023-07-29T01:56:10;9.65;;;6.90;;
57697;SDS011;43531;52.152;6.366;2023-07-29T01:56:46;8.02;;;6.75;;
57697;SDS011;43531;52.152;6.366;2023-07-29T01:57:18;8.32;;;7.32;;
57697;SDS011;43531;52.152;6.366;2023-07-29T01:57:50;10.45;;;7.32;;
57697;SDS011;43531;52.152;6.366;2023-07-29T01:58:23;10.05;;;9.07;;
57697;SDS011;43531;52.152;6.366;2023-07-29T01:58:55;12.85;;;7.22;;
57697;SDS011;43531;52.152;6.366;2023-07-29T01:59:27;10.32;;;7.95;;
57697;SDS011;43531;52.152;6.366;2023-07-29T01:59:59;15.60;;;8.45;;
57697;SDS011;43531;52.152;6.366;2023-07-29T02:00:30;8.57;;;7.60;;
57697;SDS011;43531;52.152;6.366;2023-07-29T02:01:02;8.57;;;7.30;;
57697;SDS011;43531;52.152;6.366;2023-07-29T02:01:33;8.40;;;6.80;;
57697;SDS011;43531;52.152;6.366;2023-07-29T02:02:05;7.97;;;7.15;;
57697;SDS011;43531;52.152;6.366;2023-07-29T02:02:37;10.57;;;7.57;;
57697;SDS011;43531;52.152;6.366;2023-07-29T02:03:08;8.07;;;7.22;;
57697;SDS011;43531;52.152;6.366;2023-07-29T02:03:40;8.93;;;6.85;;
57697;SDS011;43531;52.152;6.366;2023-07-29T02:04:12;7.95;;;7.15;;
57697;SDS011;43531;52.152;6.366;2023-07-29T02:04:43;7.68;;;6.50;;
57697;SDS011;43531;52.152;6.366;2023-07-29T02:05:16;8.80;;;6.47;;
57697;SDS011;43531;52.152;6.366;2023-07-29T02:05:48;10.93;;;7.22;;
57697;SDS011;43531;52.152;6.366;2023-07-29T02:06:20;8.65;;;6.93;;
57697;SDS011;43531;52.152;6.366;2023-07-29T02:06:52;8.95;;;8.05;;
57697;SDS011;43531;52.152;6.366;2023-07-29T02:07:23;11.95;;;6.55;;
57697;SDS011;43531;52.152;6.366;2023-07-29T02:07:57;10.00;;;7.65;;
57697;SDS011;43531;52.152;6.366;2023-07-29T02:08:29;8.27;;;7.30;;
57697;SDS011;43531;52.152;6.366;2023-07-29T02:09:01;8.23;;;6.32;;
57697;SDS011;43531;52.152;6.366;2023-07-29T02:09:32;6.53;;;5.97;;
57697;SDS011;43531;52.152;6.366;2023-07-29T02:10:04;6.22;;;5.65;;
57697;SDS011;43531;52.152;6.366;2023-07-29T02:10:36;7.38;;;6.55;;
57697;SDS011;43531;52.152;6.366;2023-07-29T02:11:07;7.95;;;6.13;;
57697;SDS011;43531;52.152;6.366;2023-07-29T02:11:39;8.43;;;6.68;;
57697;SDS011;43531;52.152;6.366;2023-07-29T02:12:11;7.88;;;7.07;;
57697;SDS011;43531;52.152;6.366;2023-07-29T02:12:43;7.97;;;6.75;;
57697;SDS011;43531;52.152;6.366;2023-07-29T02:13:14;7.10;;;6.10;;
57697;SDS011;43531;52.152;6.366;2023-07-29T02:13:46;10.73;;;7.43;;
57697;SDS011;43531;52.152;6.366;2023-07-29T02:14:17;7.25;;;6.47;;
57697;SDS011;43531;52.152;6.366;2023-07-29T02:14:49;8.55;;;7.22;;
57697;SDS011;43531;52.152;6.366;2023-07-29T02:15:21;8.05;;;6.07;;
57697;SDS011;43531;52.152;6.366;2023-07-29T02:15:52;8.02;;;5.88;;
57697;SDS011;43531;52.152;6.366;2023-07-29T02:16:24;8.48;;;5.93;;
57697;SDS011;43531;52.152;6.366;2023-07-29T02:16:56;8.70;;;7.00;;
57697;SDS011;43531;52.152;6.366;2023-07-29T02:17:28;7.65;;;6.60;;
57697;SDS011;43531;52.152;6.366;2023-07-29T02:17:59;7.45;;;6.65;;
57697;SDS011;43531;52.152;6.366;2023-07-29T02:18:33;8.88;;;8.00;;
57697;SDS011;43531;52.152;6.366;2023-07-29T02:19:05;11.82;;;7.95;;
57697;SDS011;43531;52.152;6.366;2023-07-29T02:19:36;9.35;;;6.72;;
57697;SDS011;43531;52.152;6.366;2023-07-29T02:20:08;10.60;;;7.13;;
57697;SDS011;43531;52.152;6.366;2023-07-29T02:20:42;8.95;;;8.05;;
57697;SDS011;43531;52.152;6.366;2023-07-29T02:21:20;9.07;;;7.28;;
57697;SDS011;43531;52.152;6.366;2023-07-29T02:21:52;8.85;;;7.60;;
57697;SDS011;43531;52.152;6.366;2023-07-29T02:22:23;9.57;;;7.72;;
57697;SDS011;43531;52.152;6.366;2023-07-29T02:22:55;13.48;;;8.75;;
57697;SDS011;43531;52.152;6.366;2023-07-29T02:23:26;13.15;;;8.82;;
57697;SDS011;43531;52.152;6.366;2023-07-29T02:23:58;11.27;;;7.35;;
57697;SDS011;43531;52.152;6.366;2023-07-29T02:24:30;9.90;;;7.50;;
57697;SDS011;43531;52.152;6.366;2023-07-29T02:25:02;10.65;;;8.70;;
57697;SDS011;43531;52.152;6.366;2023-07-29T02:25:37;13.38;;;7.93;;
57697;SDS011;43531;52.152;6.366;2023-07-29T02:26:08;11.93;;;8.57;;
57697;SDS011;43531;52.152;6.366;2023-07-29T02:26:41;9.10;;;8.18;;
57697;SDS011;43531;52.152;6.366;2023-07-29T02:27:12;10.40;;;7.28;;
57697;SDS011;43531;52.152;6.366;2023-07-29T02:27:44;9.65;;;6.88;;
57697;SDS011;43531;52.152;6.366;2023-07-29T02:28:16;7.72;;;6.93;;
57697;SDS011;43531;52.152;6.366;2023-07-29T02:28:47;11.70;;;7.55;;
57697;SDS011;43531;52.152;6.366;2023-07-29T02:29:19;8.15;;;7.00;;
57697;SDS011;43531;52.152;6.366;2023-07-29T02:29:50;8.32;;;6.82;;
57697;SDS011;43531;52.152;6.366;2023-07-29T02:30:22;7.03;;;6.22;;
57697;SDS011;43531;52.152;6.366;2023-07-29T02:31:54;7.22;;;6.47;;
57697;SDS011;43531;52.152;6.366;2023-07-29T02:32:25;8.93;;;7.88;;
57697;SDS011;43531;52.152;6.366;2023-07-29T02:32:57;8.90;;;7.03;;
57697;SDS011;43531;52.152;6.366;2023-07-29T02:33:31;8.38;;;7.05;;
57697;SDS011;43531;52.152;6.366;2023-07-29T02:34:03;9.60;;;6.88;;
57697;SDS011;43531;52.152;6.366;2023-07-29T02:34:34;10.18;;;8.43;;
57697;SDS011;43531;52.152;6.366;2023-07-29T02:35:06;9.40;;;6.47;;
57697;SDS011;43531;52.152;6.366;2023-07-29T02:35:38;9.23;;;7.13;;
57697;SDS011;43531;52.152;6.366;2023-07-29T02:36:11;8.13;;;7.32;;
57697;SDS011;43531;52.152;6.366;2023-07-29T02:36:43;9.82;;;7.93;;
57697;SDS011;43531;52.152;6.366;2023-07-29T02:37:14;12.02;;;6.60;;
57697;SDS011;43531;52.152;6.366;2023-07-29T02:37:46;9.40;;;5.93;;
57697;SDS011;43531;52.152;6.366;2023-07-29T02:38:18;8.68;;;6.82;;
57697;SDS011;43531;52.152;6.366;2023-07-29T02:38:50;8.02;;;6.45;;
57697;SDS011;43531;52.152;6.366;2023-07-29T02:39:22;8.43;;;7.00;;
57697;SDS011;43531;52.152;6.366;2023-07-29T02:39:54;7.60;;;6.88;;
57697;SDS011;43531;52.152;6.366;2023-07-29T02:40:26;8.43;;;6.85;;
57697;SDS011;43531;52.152;6.366;2023-07-29T02:40:58;9.65;;;6.63;;
57697;SDS011;43531;52.152;6.366;2023-07-29T02:41:29;7.97;;;7.18;;
57697;SDS011;43531;52.152;6.366;2023-07-29T02:42:01;8.20;;;6.57;;
57697;SDS011;43531;52.152;6.366;2023-07-29T02:42:33;8.38;;;7.55;;
57697;SDS011;43531;52.152;6.366;2023-07-29T02:43:05;8.07;;;7.00;;
57697;SDS011;43531;52.152;6.366;2023-07-29T02:43:36;7.55;;;6.72;;
57697;SDS011;43531;52.152;6.366;2023-07-29T02:44:08;7.40;;;6.70;;
57697;SDS011;43531;52.152;6.366;2023-07-29T02:44:40;9.50;;;7.53;;
57697;SDS011;43531;52.152;6.366;2023-07-29T02:45:11;8.63;;;7.72;;
57697;SDS011;43531;52.152;6.366;2023-07-29T02:45:43;9.65;;;7.72;;
57697;SDS011;43531;52.152;6.366;2023-07-29T02:46:14;9.90;;;7.97;;
57697;SDS011;43531;52.152;6.366;2023-07-29T02:46:46;9.40;;;8.15;;
57697;SDS011;43531;52.152;6.366;2023-07-29T02:47:18;11.38;;;8.55;;
57697;SDS011;43531;52.152;6.366;2023-07-29T02:47:50;12.18;;;9.30;;
57697;SDS011;43531;52.152;6.366;2023-07-29T02:48:22;14.90;;;8.27;;
57697;SDS011;43531;52.152;6.366;2023-07-29T02:48:54;10.60;;;8.23;;
57697;SDS011;43531;52.152;6.366;2023-07-29T02:49:25;10.57;;;7.97;;
57697;SDS011;43531;52.152;6.366;2023-07-29T02:49:57;9.63;;;8.15;;
57697;SDS011;43531;52.152;6.366;2023-07-29T02:50:29;10.73;;;7.60;;
57697;SDS011;43531;52.152;6.366;2023-07-29T02:51:00;8.20;;;6.80;;
57697;SDS011;43531;52.152;6.366;2023-07-29T02:51:32;8.30;;;6.93;;
57697;SDS011;43531;52.152;6.366;2023-07-29T02:52:04;9.25;;;7.07;;
57697;SDS011;43531;52.152;6.366;2023-07-29T02:52:36;8.23;;;7.10;;
57697;SDS011;43531;52.152;6.366;2023-07-29T02:53:07;10.10;;;6.82;;
57697;SDS011;43531;52.152;6.366;2023-07-29T02:53:39;10.13;;;7.32;;
57697;SDS011;43531;52.152;6.366;2023-07-29T02:54:11;9.52;;;7.80;;
57697;SDS011;43531;52.152;6.366;2023-07-29T02:54:42;8.52;;;7.63;;
57697;SDS011;43531;52.152;6.366;2023-07-29T02:55:14;10.65;;;8.32;;
57697;SDS011;43531;52.152;6.366;2023-07-29T02:55:46;9.40;;;8.07;;
57697;SDS011;43531;52.152;6.366;2023-07-29T02:56:17;8.93;;;7.53;;
57697;SDS011;43531;52.152;6.366;2023-07-29T02:56:49;15.95;;;8.50;;
57697;SDS011;43531;52.152;6.366;2023-07-29T02:57:21;11.50;;;8.02;;
57697;SDS011;43531;52.152;6.366;2023-07-29T02:57:53;19.85;;;8.80;;
57697;SDS011;43531;52.152;6.366;2023-07-29T02:58:24;11.40;;;8.70;;
57697;SDS011;43531;52.152;6.366;2023-07-29T02:58:57;8.80;;;7.90;;
57697;SDS011;43531;52.152;6.366;2023-07-29T02:59:29;8.93;;;7.68;;
57697;SDS011;43531;52.152;6.366;2023-07-29T03:00:01;8.82;;;7.60;;
57697;SDS011;43531;52.152;6.366;2023-07-29T03:00:33;11.27;;;7.30;;
57697;SDS011;43531;52.152;6.366;2023-07-29T03:01:05;8.48;;;7.57;;
57697;SDS011;43531;52.152;6.366;2023-07-29T03:01:38;8.85;;;7.85;;
57697;SDS011;43531;52.152;6.366;2023-07-29T03:02:09;8.82;;;7.30;;
57697;SDS011;43531;52.152;6.366;2023-07-29T03:02:41;9.75;;;8.25;;
57697;SDS011;43531;52.152;6.366;2023-07-29T03:03:13;12.38;;;7.65;;
57697;SDS011;43531;52.152;6.366;2023-07-29T03:03:45;8.90;;;8.10;;
57697;SDS011;43531;52.152;6.366;2023-07-29T03:04:17;9.23;;;8.25;;
57697;SDS011;43531;52.152;6.366;2023-07-29T03:04:49;7.57;;;6.78;;
57697;SDS011;43531;52.152;6.366;2023-07-29T03:05:21;6.97;;;6.28;;
57697;SDS011;43531;52.152;6.366;2023-07-29T03:06:32;8.30;;;6.85;;
57697;SDS011;43531;52.152;6.366;2023-07-29T03:07:05;9.05;;;8.13;;
57697;SDS011;43531;52.152;6.366;2023-07-29T03:07:37;13.60;;;8.38;;
57697;SDS011;43531;52.152;6.366;2023-07-29T03:08:08;9.07;;;7.78;;
57697;SDS011;43531;52.152;6.366;2023-07-29T03:08:40;9.63;;;8.30;;
57697;SDS011;43531;52.152;6.366;2023-07-29T03:09:12;11.80;;;8.48;;
57697;SDS011;43531;52.152;6.366;2023-07-29T03:09:43;10.57;;;7.47;;
57697;SDS011;43531;52.152;6.366;2023-07-29T03:10:16;11.20;;;7.25;;
57697;SDS011;43531;52.152;6.366;2023-07-29T03:10:47;9.32;;;7.25;;
57697;SDS011;43531;52.152;6.366;2023-07-29T03:11:19;9.48;;;7.50;;
57697;SDS011;43531;52.152;6.366;2023-07-29T03:11:51;9.00;;;7.50;;
57697;SDS011;43531;52.152;6.366;2023-07-29T03:12:24;9.35;;;8.30;;
57697;SDS011;43531;52.152;6.366;2023-07-29T03:12:55;9.52;;;7.70;;
57697;SDS011;43531;52.152;6.366;2023-07-29T03:13:27;12.38;;;7.95;;
57697;SDS011;43531;52.152;6.366;2023-07-29T03:13:59;8.25;;;7.50;;
57697;SDS011;43531;52.152;6.366;2023-07-29T03:14:33;10.40;;;7.95;;
57697;SDS011;43531;52.152;6.366;2023-07-29T03:15:05;9.52;;;7.95;;
57697;SDS011;43531;52.152;6.366;2023-07-29T03:15:37;7.72;;;6.45;;
57697;SDS011;43531;52.152;6.366;2023-07-29T03:16:11;7.97;;;7.03;;
57697;SDS011;43531;52.152;6.366;2023-07-29T03:16:44;8.85;;;7.07;;
57697;SDS011;43531;52.152;6.366;2023-07-29T03:17:16;9.95;;;7.82;;
57697;SDS011;43531;52.152;6.366;2023-07-29T03:17:47;7.80;;;7.00;;
57697;SDS011;43531;52.152;6.366;2023-07-29T03:18:19;12.40;;;7.00;;
57697;SDS011;43531;52.152;6.366;2023-07-29T03:18:51;8.23;;;7.28;;
57697;SDS011;43531;52.152;6.366;2023-07-29T03:19:22;8.93;;;7.47;;
57697;SDS011;43531;52.152;6.366;2023-07-29T03:19:54;12.45;;;7.90;;
57697;SDS011;43531;52.152;6.366;2023-07-29T03:20:26;8.35;;;7.00;;
57697;SDS011;43531;52.152;6.366;2023-07-29T03:20:57;9.05;;;6.93;;
57697;SDS011;43531;52.152;6.366;2023-07-29T03:21:29;16.52;;;8.90;;